Time;durP1;ratioP1;P1;durP2;ratioP2;P2;SDS_P1;SDS_P2;PMS_P1;PMS_P2;Temp;Humidity;BMP_temperature;BMP_pressure;BME280_temperature;BME280_humidity;BME280_pressure;Samples;Min_cycle;Max_cycle;Signal;HPM_P1;HPM_P2
2024/03/13 00:02:41;;;;;;;13.50;10.90;;;;;;;9.76;53.85;99866.55;104871;1254;71476;-61
2024/03/13 00:05:53;;;;;;;16.50;11.60;;;;;;;9.75;53.98;99868.54;105143;1258;60583;-62
2024/03/13 00:08:30;;;;;;;14.00;11.80;;;;;;;9.82;53.92;99865.47;104656;1254;60569;-61
2024/03/13 00:11:36;;;;;;;14.00;11.60;;;;;;;9.89;53.70;99865.24;105603;1254;73696;-62
2024/03/13 00:14:32;;;;;;;18.20;12.20;;;;;;;9.91;53.30;99865.67;105087;1253;69188;-61
2024/03/13 00:17:06;;;;;;;19.00;12.60;;;;;;;9.87;53.08;99866.34;105551;1256;71000;-61
2024/03/13 00:20:12;;;;;;;15.70;12.00;;;;;;;9.84;53.21;99866.98;105089;1253;60609;-61
2024/03/13 00:23:24;;;;;;;18.50;12.70;;;;;;;9.84;53.36;99864.88;104544;1254;60519;-61
2024/03/13 00:26:36;;;;;;;15.10;12.00;;;;;;;9.82;53.28;99865.13;104744;1256;73629;-61
2024/03/13 00:29:48;;;;;;;15.90;11.60;;;;;;;9.80;53.37;99860.33;104836;1265;69015;-61
2024/03/13 00:32:59;;;;;;;20.50;13.60;;;;;;;9.93;53.08;99861.56;104782;1260;72587;-61
2024/03/13 00:36:12;;;;;;;15.90;11.70;;;;;;;10.03;52.35;99864.54;104842;1268;61341;-61
2024/03/13 00:39:26;;;;;;;16.90;12.50;;;;;;;10.03;52.09;99869.08;104672;1257;60553;-61
2024/03/13 00:42:38;;;;;;;17.50;13.40;;;;;;;9.97;52.22;99863.89;104769;1254;73752;-61
2024/03/13 00:45:49;;;;;;;18.10;13.30;;;;;;;9.97;51.87;99860.02;104776;1257;69229;-61
2024/03/13 00:49:18;;;;;;;19.80;12.80;;;;;;;9.94;51.77;99857.52;104973;1254;72944;-61
2024/03/13 00:52:30;;;;;;;18.20;13.00;;;;;;;9.89;51.84;99856.84;105191;1258;60551;-61
2024/03/13 00:55:42;;;;;;;20.20;13.00;;;;;;;9.88;51.79;99851.06;105615;1254;60897;-62
2024/03/13 00:58:54;;;;;;;15.50;12.90;;;;;;;9.82;52.12;99850.61;104860;1259;74094;-61
2024/03/13 01:02:07;;;;;;;17.30;12.60;;;;;;;9.83;51.90;99846.19;104496;1260;69244;-61
2024/03/13 01:05:21;;;;;;;18.70;12.90;;;;;;;9.86;51.79;99845.02;105065;1254;72437;-59
2024/03/13 01:09:15;;;;;;;18.20;13.90;;;;;;;9.81;51.93;99846.95;105227;1256;60797;-59
2024/03/13 01:12:08;;;;;;;17.00;13.10;;;;;;;9.80;51.84;99848.75;105275;1253;60555;-61
2024/03/13 01:15:15;;;;;;;16.50;13.60;;;;;;;9.83;51.45;99850.56;104822;1259;74476;-61
2024/03/13 01:18:26;;;;;;;16.80;12.90;;;;;;;9.72;51.45;99846.77;104776;1258;69849;-61
2024/03/13 01:21:39;;;;;;;20.10;13.80;;;;;;;9.22;52.99;99845.34;105298;1258;72699;-61
2024/03/13 01:24:50;;;;;;;16.20;13.30;;;;;;;9.15;53.81;99845.91;104817;1259;60666;-63
2024/03/13 01:28:04;;;;;;;19.00;13.30;;;;;;;9.24;53.60;99844.59;105249;1255;60480;-62
2024/03/13 01:31:16;;;;;;;19.80;12.40;;;;;;;9.14;53.96;99842.82;105462;1253;76391;-61
2024/03/13 01:34:31;;;;;;;16.90;13.70;;;;;;;9.09;54.37;99844.37;104643;1255;69188;-60
2024/03/13 01:40:01;;;;;;;16.10;12.70;;;;;;;9.16;54.66;99833.14;104864;1258;60622;-61
2024/03/13 01:57:02;;;;;;;17.70;12.50;;;;;;;9.24;54.91;99829.72;106960;1253;63512;-62
2024/03/13 02:03:47;;;;;;;13.50;11.20;;;;;;;9.29;54.54;99822.54;105062;1258;74568;-62
2024/03/13 02:07:00;;;;;;;14.20;11.10;;;;;;;9.23;54.94;99821.71;107050;1254;69193;-62
2024/03/13 02:09:50;;;;;;;14.80;10.90;;;;;;;9.24;55.25;99817.83;104591;1258;73366;-61
2024/03/13 02:12:55;;;;;;;14.60;12.10;;;;;;;9.36;55.07;99821.60;105801;1253;60503;-61
2024/03/13 02:16:07;;;;;;;16.40;12.20;;;;;;;9.41;54.51;99825.44;104322;1253;60528;-62
2024/03/13 02:19:20;;;;;;;15.70;11.60;;;;;;;9.33;55.11;99823.61;106698;1253;74289;-62
2024/03/13 02:22:06;;;;;;;15.70;12.80;;;;;;;9.36;55.02;99824.39;105516;1259;70898;-61
2024/03/13 02:25:13;;;;;;;13.50;11.80;;;;;;;9.36;54.79;99828.95;104862;1258;72520;-60
2024/03/13 02:28:25;;;;;;;14.60;11.60;;;;;;;9.28;55.12;99830.43;104883;1259;60811;-61
2024/03/13 02:31:38;;;;;;;19.10;11.80;;;;;;;9.24;55.28;99828.84;104939;1253;60529;-61
2024/03/13 02:34:50;;;;;;;16.90;11.80;;;;;;;9.22;55.48;99825.77;106425;1253;72706;-61
2024/03/13 02:38:02;;;;;;;16.70;12.10;;;;;;;9.29;55.24;99825.33;104323;1254;69639;-63
2024/03/13 02:41:14;;;;;;;14.00;11.10;;;;;;;9.27;54.74;99823.30;104768;1269;72438;-61
2024/03/13 02:43:47;;;;;;;14.10;11.50;;;;;;;9.18;55.54;99821.68;104719;1262;61023;-63
2024/03/13 02:49:46;;;;;;;15.10;12.00;;;;;;;8.48;62.94;99830.52;101263;1294;616782;-59
2024/03/13 02:53:48;;;;;;;17.30;12.30;;;;;;;9.98;54.18;99825.32;101401;1298;61593;-59
2024/03/13 02:56:59;;;;;;;15.20;11.20;;;;;;;9.89;53.86;99826.35;103704;1267;59989;-60
2024/03/13 03:00:10;;;;;;;16.40;11.50;;;;;;;9.88;53.48;99824.45;104133;1267;71982;-60
2024/03/13 03:03:20;;;;;;;15.60;11.20;;;;;;;9.86;53.04;99825.43;104455;1267;180701;-61
2024/03/13 03:06:25;;;;;;;13.90;11.30;;;;;;;9.82;53.23;99826.42;104375;1264;72555;-64
2024/03/13 03:09:37;;;;;;;18.70;12.70;;;;;;;9.85;53.06;99821.77;105422;1263;61546;-61
2024/03/13 03:12:09;;;;;;;16.80;11.90;;;;;;;9.80;53.15;99823.86;104502;1269;59266;-61
2024/03/13 03:15:14;;;;;;;15.80;11.60;;;;;;;9.83;53.21;99824.84;103931;1266;72578;-63
2024/03/13 03:18:20;;;;;;;17.80;12.30;;;;;;;9.81;53.15;99823.15;105180;1266;70160;-61
2024/03/13 03:20:53;;;;;;;12.20;10.80;;;;;;;9.36;53.87;99825.61;104008;1263;72571;-61
2024/03/13 03:23:27;;;;;;;15.60;11.50;;;;;;;9.27;54.66;99825.73;104996;1263;60881;-60
2024/03/13 03:26:18;;;;;;;17.50;12.00;;;;;;;8.51;57.80;99825.39;104961;1263;60646;-61
2024/03/13 03:29:23;;;;;;;13.90;11.20;;;;;;;8.10;59.37;99833.29;104124;1269;72688;-61
2024/03/13 03:32:08;;;;;;;14.50;11.10;;;;;;;7.88;62.53;99829.41;105064;1264;70036;-61
2024/03/13 03:35:13;;;;;;;14.70;11.20;;;;;;;8.08;62.90;99828.30;104344;1259;72386;-61
2024/03/13 03:37:51;;;;;;;16.30;10.50;;;;;;;8.17;61.99;99829.61;104613;1254;60964;-60
2024/03/13 03:40:24;;;;;;;16.60;11.50;;;;;;;7.45;65.91;99826.77;104586;1254;60416;-61
2024/03/13 03:43:29;;;;;;;17.70;11.50;;;;;;;7.39;69.12;99827.80;105429;1254;72789;-60
2024/03/13 03:46:40;;;;;;;11.70;10.10;;;;;;;7.67;68.72;99825.48;105167;1254;70027;-60
2024/03/13 03:49:50;;;;;;;15.60;10.60;;;;;;;8.57;62.74;99817.40;105024;1254;71638;-62
2024/03/13 03:52:29;;;;;;;15.50;10.90;;;;;;;8.25;62.38;99818.87;104737;1255;60909;-61
2024/03/13 03:55:03;;;;;;;18.20;12.60;;;;;;;7.94;64.79;99819.46;104704;1254;60039;-61
2024/03/13 03:58:08;;;;;;;17.40;12.40;;;;;;;7.68;66.72;99818.98;104300;1254;73048;-61
2024/03/13 04:01:15;;;;;;;18.00;13.40;;;;;;;7.98;66.35;99811.30;104269;1258;70391;-61
2024/03/13 04:04:26;;;;;;;17.00;12.00;;;;;;;7.68;66.43;99812.69;104645;1257;72361;-61
2024/03/13 04:07:06;;;;;;;17.50;11.60;;;;;;;8.25;65.29;99812.89;106076;1257;60638;-61
2024/03/13 04:09:39;;;;;;;17.10;12.50;;;;;;;9.03;59.32;99811.71;105105;1254;59764;-61
2024/03/13 04:12:45;;;;;;;16.90;12.30;;;;;;;8.61;60.01;99809.08;104741;1268;72455;-61
2024/03/13 04:15:53;;;;;;;15.80;12.50;;;;;;;8.43;60.69;99811.71;105170;1260;69206;-62
2024/03/13 04:19:00;;;;;;;19.60;12.70;;;;;;;8.46;61.55;99810.23;104338;1270;72900;-61
2024/03/13 04:21:40;;;;;;;18.80;12.30;;;;;;;8.52;61.67;99810.04;105591;1255;61013;-61
2024/03/13 04:24:13;;;;;;;16.10;12.30;;;;;;;8.61;60.90;99810.65;106582;1254;59768;-61
2024/03/13 04:27:08;;;;;;;17.30;12.60;;;;;;;8.59;60.71;99811.92;104511;1262;72650;-61
2024/03/13 04:29:34;;;;;;;19.00;13.00;;;;;;;8.41;61.21;99817.36;104632;1254;70209;-61
2024/03/13 04:32:13;;;;;;;18.30;13.70;;;;;;;8.26;62.19;99817.63;104697;1270;72730;-62
2024/03/13 04:34:46;;;;;;;17.90;13.50;;;;;;;8.24;62.26;99811.07;105381;1257;59716;-62
2024/03/13 04:37:50;;;;;;;20.60;13.60;;;;;;;8.15;62.99;99811.33;104843;1256;59864;-61
2024/03/13 04:40:30;;;;;;;21.80;14.30;;;;;;;8.31;63.08;99811.38;106639;1253;72696;-61
2024/03/13 04:43:00;;;;;;;17.10;13.70;;;;;;;8.20;63.54;99810.49;105024;1254;68178;-61
2024/03/13 04:46:04;;;;;;;21.40;14.50;;;;;;;8.22;63.10;99811.48;104820;1258;72766;-61
2024/03/13 04:48:40;;;;;;;23.40;15.10;;;;;;;8.12;63.72;99810.02;104552;1254;61049;-61
2024/03/13 04:51:14;;;;;;;20.40;15.20;;;;;;;8.15;63.79;99810.62;104676;1256;60335;-61
2024/03/13 04:54:18;;;;;;;21.60;15.50;;;;;;;8.18;63.79;99811.41;104949;1256;73855;-61
2024/03/13 04:57:06;;;;;;;21.60;16.70;;;;;;;8.39;62.20;99809.36;104347;1273;70090;-60
2024/03/13 04:59:39;;;;;;;20.50;15.80;;;;;;;8.36;62.20;99807.90;105353;1256;72196;-62
2024/03/13 05:02:44;;;;;;;21.20;16.50;;;;;;;8.31;62.36;99815.05;105057;1256;60754;-61
2024/03/13 05:05:23;;;;;;;23.30;17.00;;;;;;;8.38;62.35;99814.31;104987;1254;59644;-61
2024/03/13 05:07:50;;;;;;;23.20;17.30;;;;;;;8.31;62.38;99816.42;105914;1255;72501;-61
2024/03/13 05:10:58;;;;;;;20.20;16.30;;;;;;;8.27;63.10;99817.62;104837;1253;70258;-61
2024/03/13 05:14:09;;;;;;;20.30;15.70;;;;;;;8.27;63.47;99814.80;106061;1254;72923;-60
2024/03/13 05:17:19;;;;;;;19.30;15.30;;;;;;;8.20;64.29;99812.76;106436;1254;60684;-61
2024/03/13 05:20:28;;;;;;;20.70;15.90;;;;;;;8.38;63.56;99812.56;106444;1253;59821;-61
2024/03/13 05:23:38;;;;;;;21.00;15.90;;;;;;;8.61;62.74;99812.19;106008;1254;72635;-60
2024/03/13 05:26:09;;;;;;;19.60;16.10;;;;;;;7.86;65.76;99810.96;104559;1274;69577;-60
2024/03/13 05:28:42;;;;;;;21.90;17.60;;;;;;;7.85;66.16;99813.60;105868;1256;72449;-60
2024/03/13 05:31:49;;;;;;;20.40;16.50;;;;;;;8.23;64.61;99810.23;104394;1265;60923;-61
2024/03/13 05:34:28;;;;;;;24.90;17.90;;;;;;;7.78;66.94;99812.92;106871;1256;60397;-60
2024/03/13 05:37:01;;;;;;;22.90;17.40;;;;;;;7.78;67.76;99811.70;105105;1256;72669;-60
2024/03/13 05:40:14;;;;;;;18.90;16.00;;;;;;;7.85;67.69;99814.48;104773;1256;69768;-60
2024/03/13 05:43:23;;;;;;;23.70;16.50;;;;;;;8.18;66.30;99818.04;105412;1256;74081;-61
2024/03/13 05:46:36;;;;;;;21.20;17.90;;;;;;;8.38;65.57;99820.55;104973;1256;61905;-61
2024/03/13 05:49:42;;;;;;;23.10;18.60;;;;;;;9.02;60.65;99816.11;106548;1253;59369;-60
2024/03/13 05:52:53;;;;;;;23.20;17.70;;;;;;;9.09;59.37;99824.96;105876;1256;72792;-61
2024/03/13 05:55:32;;;;;;;24.10;17.90;;;;;;;8.75;59.88;99831.13;106117;1255;69406;-60
2024/03/13 05:58:08;;;;;;;26.30;17.50;;;;;;;8.06;64.40;99836.38;106194;1256;72331;-59
2024/03/13 06:01:14;;;;;;;24.70;18.10;;;;;;;8.18;65.15;99823.65;105225;1256;60941;-60
2024/03/13 06:03:53;;;;;;;23.80;17.60;;;;;;;8.00;66.63;99835.00;106295;1256;60596;-60
2024/03/13 06:06:21;;;;;;;24.90;18.70;;;;;;;7.96;67.60;99831.09;104977;1254;73110;-63
2024/03/13 06:09:06;;;;;;;23.80;17.40;;;;;;;8.49;65.84;99832.30;106124;1253;69288;-67
2024/03/13 06:12:08;;;;;;;21.40;17.60;;;;;;;9.13;61.34;99828.33;105597;1253;73123;-61
2024/03/13 06:14:41;;;;;;;25.10;18.70;;;;;;;9.19;60.10;99827.44;104948;1255;60820;-59
2024/03/13 06:17:46;;;;;;;22.50;18.30;;;;;;;8.88;60.39;99832.45;105130;1254;59667;-60
2024/03/13 06:20:37;;;;;;;20.90;17.30;;;;;;;8.54;64.09;99835.83;106357;1253;73191;-59
2024/03/13 06:23:06;;;;;;;22.70;18.60;;;;;;;8.93;61.53;99832.67;105320;1255;69127;-60
2024/03/13 06:26:16;;;;;;;23.30;19.00;;;;;;;8.86;61.33;99831.84;104475;1257;73043;-60
2024/03/13 06:32:08;;;;;;;24.00;18.60;;;;;;;9.17;59.89;99832.57;106813;1254;59936;-61
2024/03/13 06:35:13;;;;;;;20.20;18.00;;;;;;;8.83;60.99;99837.36;105028;1254;74004;-60
2024/03/13 06:38:24;;;;;;;23.70;18.90;;;;;;;8.76;62.88;99838.84;105304;1254;69651;-59
2024/03/13 06:41:09;;;;;;;;;;;;;;;8.84;61.80;99837.70;105181;1265;73538;-60
2024/03/13 06:44:14;;;;;;;23.40;18.40;;;;;;;8.85;61.79;99840.98;104183;1256;61065;-60
2024/03/13 06:47:29;;;;;;;23.80;17.70;;;;;;;8.66;62.38;99840.38;104412;1262;60224;-60
2024/03/13 06:50:41;;;;;;;21.60;18.10;;;;;;;8.43;62.31;99838.61;105966;1255;73399;-61
2024/03/13 06:53:20;;;;;;;26.40;18.50;;;;;;;8.33;64.47;99836.30;104604;1261;70474;-60
2024/03/13 06:55:49;;;;;;;24.10;19.30;;;;;;;8.90;62.64;99831.37;105006;1254;72572;-60
2024/03/13 06:58:56;;;;;;;25.00;19.90;;;;;;;9.12;60.97;99828.70;105508;1258;61736;-61
2024/03/13 07:02:13;;;;;;;24.70;19.70;;;;;;;9.16;59.51;99825.77;104914;1253;59732;-60
2024/03/13 07:05:18;;;;;;;26.30;19.60;;;;;;;9.11;59.36;99819.50;106095;1255;73457;-61
2024/03/13 07:08:31;;;;;;;25.80;19.40;;;;;;;9.13;59.48;99813.81;105288;1255;68585;-61
2024/03/13 07:11:42;;;;;;;23.60;18.40;;;;;;;9.24;59.63;99820.94;104566;1254;73552;-61
2024/03/13 07:14:17;;;;;;;24.90;18.30;;;;;;;9.37;59.18;99820.35;105690;1258;62684;-60
2024/03/13 07:16:47;;;;;;;21.50;17.00;;;;;;;9.41;58.87;99819.69;105376;1256;60517;-60
2024/03/13 07:19:15;;;;;;;25.70;17.50;;;;;;;9.55;58.67;99818.50;104301;1261;73128;-63
2024/03/13 07:22:08;;;;;;;23.30;18.70;;;;;;;9.67;57.93;99818.23;104334;1261;69664;-61
2024/03/13 07:24:42;;;;;;;21.30;16.80;;;;;;;9.61;58.39;99812.15;105234;1252;73079;-60
2024/03/13 07:27:09;;;;;;;20.70;16.60;;;;;;;9.69;58.18;99816.38;105229;1253;61533;-61
2024/03/13 07:29:36;;;;;;;24.60;18.40;;;;;;;9.74;57.61;99815.34;105008;1256;61676;-61
2024/03/13 07:32:42;;;;;;;23.30;16.90;;;;;;;9.15;58.88;99820.38;104710;1256;73440;-61
2024/03/13 07:36:31;;;;;;;21.10;15.60;;;;;;;8.65;64.39;99822.74;104382;1268;70193;-60
2024/03/13 07:39:39;;;;;;;21.60;16.70;;;;;;;9.07;61.03;99815.41;104740;1255;73437;-60
2024/03/13 07:42:50;;;;;;;21.50;16.10;;;;;;;9.23;60.71;99831.15;105567;1252;61448;-60
2024/03/13 07:45:19;;;;;;;21.60;16.20;;;;;;;9.24;60.53;99831.12;105056;1270;60427;-60
2024/03/13 07:47:46;;;;;;;20.00;16.00;;;;;;;9.35;60.24;99832.48;104997;1252;73659;-61
2024/03/13 07:50:19;;;;;;;24.50;16.70;;;;;;;9.32;59.61;99830.48;105013;1255;70186;-62
2024/03/13 07:53:25;;;;;;;24.60;17.30;;;;;;;9.33;60.11;99827.32;105084;1253;72764;-61
2024/03/13 07:56:05;;;;;;;19.00;16.20;;;;;;;9.32;60.42;99835.73;105106;1255;61023;-62
2024/03/13 07:58:38;;;;;;;21.90;15.10;;;;;;;9.40;60.26;99841.95;104866;1253;60635;-61
2024/03/13 08:01:42;;;;;;;20.60;16.00;;;;;;;9.46;59.87;99844.02;104844;1253;74301;-61
2024/03/13 08:04:11;;;;;;;22.10;15.70;;;;;;;9.54;59.55;99838.13;104783;1252;69634;-60
2024/03/13 08:06:44;;;;;;;18.70;15.00;;;;;;;9.54;59.13;99838.62;104986;1255;73131;-61
2024/03/13 08:10:09;;;;;;;21.50;15.80;;;;;;;9.87;57.83;99844.28;104912;1252;63320;-61
2024/03/13 08:12:55;;;;;;;19.80;15.20;;;;;;;9.68;58.86;99842.00;105815;1253;60493;-62
2024/03/13 08:16:14;;;;;;;19.70;14.90;;;;;;;10.03;57.28;99843.17;104819;1257;73933;-61
2024/03/13 08:19:04;;;;;;;19.90;15.30;;;;;;;9.73;57.75;99845.86;104825;1253;69845;-62
2024/03/13 08:22:27;;;;;;;17.90;14.50;;;;;;;9.79;58.06;99841.95;104728;1255;73205;-61
2024/03/13 08:25:16;;;;;;;18.50;14.70;;;;;;;9.88;57.57;99843.02;104452;1263;60042;-62
2024/03/13 08:28:19;;;;;;;20.70;15.20;;;;;;;9.95;57.34;99842.92;104447;1264;60930;-67
2024/03/13 08:31:10;;;;;;;17.40;15.00;;;;;;;9.99;56.65;99848.58;106218;1253;73940;-64
2024/03/13 08:34:33;;;;;;;18.50;14.40;;;;;;;9.90;57.41;99847.33;105122;1252;69732;-61
2024/03/13 08:37:18;;;;;;;17.50;14.30;;;;;;;9.97;57.39;99842.15;104470;1253;72614;-63
2024/03/13 08:40:41;;;;;;;19.60;13.90;;;;;;;9.96;57.33;99848.86;104665;1253;61499;-63
2024/03/13 08:43:29;;;;;;;17.20;13.60;;;;;;;9.89;57.70;99856.30;104831;1253;62105;-63
2024/03/13 08:46:29;;;;;;;18.70;13.40;;;;;;;9.96;57.29;99857.43;104863;1251;73603;-64
2024/03/13 08:49:52;;;;;;;18.10;13.40;;;;;;;9.86;57.18;99858.66;104798;1254;71244;-62
2024/03/13 08:53:16;;;;;;;17.90;12.50;;;;;;;9.81;57.46;99863.06;104399;1259;72681;-62
2024/03/13 08:56:39;;;;;;;20.00;13.10;;;;;;;9.85;57.71;99864.47;104685;1251;61140;-63
2024/03/13 09:00:03;;;;;;;20.00;13.00;;;;;;;9.96;57.43;99866.88;104654;1262;60957;-63
2024/03/13 09:02:56;;;;;;;18.10;13.50;;;;;;;9.47;58.91;99862.70;104769;1257;73699;-63
2024/03/13 09:06:19;;;;;;;18.20;13.20;;;;;;;9.73;58.21;99863.86;105166;1255;69631;-66
2024/03/13 09:09:12;;;;;;;14.70;12.00;;;;;;;9.90;56.97;99863.75;104596;1256;72724;-62
2024/03/13 09:12:18;;;;;;;20.00;11.70;;;;;;;9.71;56.94;99867.27;104865;1260;61159;-63
2024/03/13 09:14:57;;;;;;;15.20;11.90;;;;;;;9.37;58.24;99861.99;105470;1253;60566;-61
2024/03/13 09:18:03;;;;;;;15.60;12.40;;;;;;;9.40;58.68;99862.75;104809;1256;75535;-62
2024/03/13 09:21:15;;;;;;;18.60;11.90;;;;;;;9.32;59.36;99862.83;104362;1255;69582;-62
2024/03/13 09:24:26;;;;;;;14.60;12.60;;;;;;;9.46;59.09;99866.03;104964;1258;73125;-63
2024/03/13 09:27:08;;;;;;;17.10;12.50;;;;;;;9.41;59.42;99863.25;104838;1252;61157;-63
2024/03/13 09:29:41;;;;;;;17.50;11.40;;;;;;;9.45;59.22;99864.31;104399;1257;60539;-63
2024/03/13 09:32:46;;;;;;;15.90;12.10;;;;;;;9.47;59.30;99863.55;104796;1258;72636;-63
2024/03/13 09:36:00;;;;;;;13.20;11.30;;;;;;;9.37;59.64;99847.48;104241;1260;70271;-63
2024/03/13 09:39:11;;;;;;;18.80;13.50;;;;;;;9.96;58.30;99866.02;104648;1256;72571;-62
2024/03/13 09:41:54;;;;;;;17.00;12.00;;;;;;;10.44;56.27;99862.87;104868;1253;61506;-62
2024/03/13 09:44:59;;;;;;;16.50;12.80;;;;;;;10.56;55.62;99860.64;104763;1255;61350;-61
2024/03/13 09:48:10;;;;;;;19.10;12.40;;;;;;;10.66;55.33;99858.67;104446;1258;73155;-62
2024/03/13 09:51:21;;;;;;;16.70;12.10;;;;;;;10.95;54.21;99858.38;104554;1269;70326;-64
2024/03/13 09:54:33;;;;;;;24.80;13.30;;;;;;;11.08;53.59;99858.89;105443;1253;73260;-60
2024/03/13 09:57:43;;;;;;;16.80;12.00;;;;;;;11.11;53.11;99854.73;104540;1255;60565;-63
2024/03/13 10:00:56;;;;;;;19.60;11.90;;;;;;;11.17;53.37;99859.22;104623;1255;60487;-61
2024/03/13 10:04:10;;;;;;;16.30;12.20;;;;;;;11.16;52.55;99851.20;105760;1256;73669;-62
2024/03/13 10:06:43;;;;;;;20.00;12.30;;;;;;;11.04;52.67;99855.73;105315;1253;69653;-60
2024/03/13 10:09:48;;;;;;;19.20;11.20;;;;;;;11.09;52.64;99857.98;106803;1253;72414;-61
2024/03/13 10:12:21;;;;;;;16.00;11.70;;;;;;;11.12;52.51;99856.45;106358;1253;60464;-61
2024/03/13 10:14:52;;;;;;;17.90;11.70;;;;;;;11.09;52.35;99857.61;104959;1253;60594;-62
2024/03/13 10:17:21;;;;;;;18.00;11.40;;;;;;;11.13;52.32;99856.04;104977;1256;74214;-62
2024/03/13 10:19:49;;;;;;;13.70;11.30;;;;;;;11.16;52.28;99858.05;105022;1255;69466;-62
2024/03/13 10:22:55;;;;;;;17.60;11.50;;;;;;;11.19;51.99;99855.45;104376;1266;72541;-62
2024/03/13 10:25:29;;;;;;;17.50;11.40;;;;;;;11.20;51.76;99852.95;105126;1259;60908;-62
2024/03/13 10:28:34;;;;;;;15.10;10.80;;;;;;;11.28;51.64;99849.98;105606;1253;60471;-65
2024/03/13 10:31:44;;;;;;;17.30;10.80;;;;;;;11.42;51.07;99847.96;105482;1252;73892;-62
2024/03/13 10:34:55;;;;;;;13.60;9.80;;;;;;;11.33;51.29;99849.41;105034;1253;69404;-62
2024/03/13 10:37:22;;;;;;;14.10;10.60;;;;;;;11.40;51.27;99845.30;106249;1253;74051;-62
2024/03/13 10:39:49;;;;;;;14.10;10.70;;;;;;;11.34;51.14;99845.01;104814;1253;61177;-63
2024/03/13 10:42:17;;;;;;;14.60;9.90;;;;;;;11.34;50.74;99845.53;104522;1257;60576;-62
2024/03/13 10:45:04;;;;;;;;;;;;;;;11.40;51.03;99840.52;106202;1256;73886;-62
2024/03/13 10:47:50;;;;;;;13.40;10.60;;;;;;;11.36;50.19;99843.14;105284;1256;70414;-61
2024/03/13 10:51:21;;;;;;;11.00;9.60;;;;;;;11.35;49.80;99840.21;104709;1258;71271;-61
2024/03/13 10:54:12;;;;;;;14.10;9.90;;;;;;;11.34;49.54;99839.39;104697;1254;61882;-61
2024/03/13 10:56:39;;;;;;;18.20;9.60;;;;;;;11.39;49.47;99837.92;104732;1252;60568;-61
2024/03/13 10:59:06;;;;;;;13.80;9.80;;;;;;;11.34;49.24;99835.19;106651;1252;73936;-60
2024/03/13 11:01:37;;;;;;;13.40;9.90;;;;;;;11.29;49.67;99830.48;105005;1257;69838;-61
2024/03/13 11:04:49;;;;;;;12.90;9.00;;;;;;;11.26;49.29;99829.02;105607;1253;73073;-62
2024/03/13 11:07:23;;;;;;;13.80;9.80;;;;;;;11.29;49.50;99828.35;105228;1260;61837;-60
2024/03/13 11:10:29;;;;;;;11.20;8.70;;;;;;;11.28;49.49;99826.29;105491;1255;60458;-63
2024/03/13 11:13:54;;;;;;;12.50;9.40;;;;;;;11.39;49.36;99826.00;106069;1255;73733;-62
2024/03/13 11:17:19;;;;;;;11.90;8.80;;;;;;;11.40;49.24;99832.81;104911;1253;70772;-63
2024/03/13 11:19:54;;;;;;;9.80;8.20;;;;;;;11.31;49.39;99829.87;104879;1255;73058;-63
2024/03/13 11:23:21;;;;;;;12.90;8.60;;;;;;;10.96;50.43;99834.66;105502;1254;60847;-61
2024/03/13 11:25:48;;;;;;;9.20;8.30;;;;;;;10.89;50.29;99830.36;105376;1255;60271;-62
2024/03/13 11:28:58;;;;;;;10.20;8.20;;;;;;;10.82;50.89;99829.96;105739;1256;73888;-61
2024/03/13 11:31:39;;;;;;;17.50;8.90;;;;;;;11.30;50.14;99824.98;105483;1257;69397;-61
2024/03/13 11:34:09;;;;;;;10.40;8.80;;;;;;;11.42;49.76;99818.67;105438;1253;71396;-63
2024/03/13 11:36:42;;;;;;;11.80;9.00;;;;;;;10.97;50.53;99819.02;105348;1253;60729;-63
2024/03/13 11:40:25;;;;;;;12.20;8.60;;;;;;;10.79;51.13;99825.17;106426;1256;60671;-62
2024/03/13 11:43:35;;;;;;;10.60;8.80;;;;;;;10.75;51.64;99822.34;105264;1257;73922;-61
2024/03/13 11:46:43;;;;;;;13.20;8.80;;;;;;;10.72;51.59;99818.45;105179;1251;69343;-61
2024/03/13 11:49:14;;;;;;;14.90;8.50;;;;;;;10.71;52.23;99819.17;105704;1251;72726;-61
2024/03/13 11:52:03;;;;;;;12.00;8.00;;;;;;;10.77;52.27;99820.71;107021;1253;61179;-61
2024/03/13 11:55:13;;;;;;;10.80;8.10;;;;;;;11.07;51.74;99819.08;106166;1252;60537;-61
2024/03/13 11:58:30;;;;;;;12.90;8.40;;;;;;;11.32;50.50;99819.45;106100;1253;73434;-60
2024/03/13 12:01:03;;;;;;;10.20;7.90;;;;;;;11.26;50.80;99821.99;105716;1253;68377;-61
2024/03/13 12:03:40;;;;;;;9.60;8.60;;;;;;;11.35;50.64;99814.26;105424;1253;72477;-60
2024/03/13 12:06:24;;;;;;;10.00;7.80;;;;;;;11.40;50.28;99812.79;105594;1252;61503;-62
2024/03/13 12:09:24;;;;;;;11.50;7.80;;;;;;;11.48;50.08;99809.29;105585;1253;61153;-61
2024/03/13 12:12:13;;;;;;;14.30;8.00;;;;;;;11.48;50.30;99804.89;105188;1258;74501;-60
2024/03/13 12:14:50;;;;;;;10.90;8.50;;;;;;;11.59;49.60;99802.15;107748;1253;70044;-62
2024/03/13 12:17:18;;;;;;;14.40;8.10;;;;;;;11.68;49.80;99805.45;106540;1255;73605;-62
2024/03/13 12:19:47;;;;;;;12.00;8.00;;;;;;;11.48;49.51;99800.65;106324;1253;61089;-62
2024/03/13 12:22:15;;;;;;;9.30;8.20;;;;;;;11.20;50.20;99805.77;105538;1256;60539;-62
2024/03/13 12:25:03;;;;;;;11.30;8.00;;;;;;;11.13;50.62;99801.14;106078;1258;74472;-62
2024/03/13 12:27:47;;;;;;;13.60;8.40;;;;;;;11.18;50.57;99798.64;106969;1258;69665;-60
2024/03/13 12:30:52;;;;;;;9.70;7.60;;;;;;;11.29;50.92;99799.23;105358;1253;73279;-61
2024/03/13 12:33:25;;;;;;;10.90;7.70;;;;;;;11.39;50.37;99797.56;106105;1253;61029;-60
2024/03/13 12:36:10;;;;;;;12.00;8.90;;;;;;;11.28;50.63;99799.25;104886;1254;59985;-61
2024/03/13 12:38:44;;;;;;;11.00;9.00;;;;;;;11.22;50.86;99794.61;107232;1253;73554;-62
2024/03/13 12:41:11;;;;;;;;;;;;;;;11.25;50.58;99793.75;106394;1256;69790;-61
2024/03/13 12:44:18;;;;;;;14.20;8.60;;;;;;;11.25;50.54;99794.33;104854;1253;74532;-61
2024/03/13 12:46:48;;;;;;;11.00;8.50;;;;;;;11.09;50.34;99782.20;104839;1255;61496;-60
2024/03/13 12:49:15;;;;;;;10.80;8.00;;;;;;;11.19;50.59;99794.95;104759;1257;60530;-61
2024/03/13 12:52:04;;;;;;;12.20;7.80;;;;;;;11.26;50.53;99795.16;104907;1256;72802;-60
2024/03/13 12:55:04;;;;;;;13.60;8.70;;;;;;;11.24;49.86;99793.12;104751;1255;70291;-60
2024/03/13 12:58:10;;;;;;;10.60;8.10;;;;;;;11.23;49.85;99796.65;104533;1253;72732;-60
2024/03/13 13:00:49;;;;;;;11.70;8.60;;;;;;;11.29;49.47;99796.97;105124;1253;61118;-61
2024/03/13 13:03:22;;;;;;;12.10;7.50;;;;;;;11.39;49.20;99794.05;105252;1253;59987;-61
2024/03/13 13:06:29;;;;;;;12.50;8.60;;;;;;;11.36;49.25;99797.55;104331;1262;74318;-60
2024/03/13 13:09:08;;;;;;;11.90;8.00;;;;;;;11.37;49.02;99796.42;104895;1257;69073;-61
2024/03/13 13:12:12;;;;;;;11.60;8.00;;;;;;;11.37;49.16;99800.12;105492;1256;71683;-61
2024/03/13 13:14:40;;;;;;;11.30;8.10;;;;;;;11.33;49.45;99803.07;104777;1258;60981;-64
2024/03/13 13:17:44;;;;;;;11.20;8.80;;;;;;;11.28;49.33;99800.31;104711;1254;60560;-61
2024/03/13 13:20:18;;;;;;;14.50;9.20;;;;;;;11.27;49.17;99797.90;104653;1256;73640;-61
2024/03/13 13:23:24;;;;;;;12.10;8.10;;;;;;;11.23;48.74;99797.91;104938;1256;71184;-61
2024/03/13 13:26:01;;;;;;;11.50;8.40;;;;;;;11.25;48.80;99796.25;106029;1256;73250;-60
2024/03/13 13:28:29;;;;;;;13.20;8.00;;;;;;;11.28;48.90;99798.91;105048;1253;60846;-60
2024/03/13 13:31:16;;;;;;;12.90;7.90;;;;;;;11.32;48.80;99799.11;104888;1257;60467;-62
2024/03/13 13:34:08;;;;;;;14.10;8.20;;;;;;;11.75;47.45;99790.86;105156;1255;72808;-62
2024/03/13 13:36:35;;;;;;;12.10;8.60;;;;;;;11.54;47.01;99793.92;104995;1252;68368;-62
2024/03/13 13:39:40;;;;;;;9.90;7.30;;;;;;;11.36;46.72;99792.10;104671;1258;72537;-62
2024/03/13 13:42:06;;;;;;;12.90;8.00;;;;;;;11.27;46.50;99788.77;105363;1253;61910;-59
2024/03/13 13:45:11;;;;;;;9.60;6.80;;;;;;;11.21;46.11;99788.54;104880;1256;60555;-59
2024/03/13 13:48:35;;;;;;;7.30;6.30;;;;;;;11.20;46.33;99789.96;104904;1255;73737;-61
2024/03/13 13:51:46;;;;;;;12.40;7.40;;;;;;;11.28;46.08;99794.33;105108;1257;69487;-62
2024/03/13 13:54:46;;;;;;;10.70;7.10;;;;;;;11.14;46.08;99797.09;104389;1253;72855;-61